Time;durP1;ratioP1;P1;durP2;ratioP2;P2;SDS_P1;SDS_P2;PMS_P1;PMS_P2;Temp;Humidity;BMP_temperature;BMP_pressure;BME280_temperature;BME280_humidity;BME280_pressure;Samples;Min_cycle;Max_cycle;Signal;HPM_P1;HPM_P2
2021/07/15 00:00:26;;;;;;;12.65;9.07;;;;;;;;;;4407270;32;20339;-56
2021/07/15 00:02:52;;;;;;;10.52;9.00;;;;;;;;;;4406853;32;20326;-56
2021/07/15 00:05:18;;;;;;;11.38;9.77;;;;;;;;;;4405861;32;20306;-57
2021/07/15 00:07:44;;;;;;;13.77;8.27;;;;;;;;;;4407295;32;20288;-55
2021/07/15 00:10:30;;;;;;;13.55;8.88;;;;;;;;;;4407227;32;20398;-56
2021/07/15 00:12:56;;;;;;;11.43;9.38;;;;;;;;;;4407327;32;20274;-56
2021/07/15 00:15:24;;;;;;;14.40;9.10;;;;;;;;;;4407363;32;20281;-56
2021/07/15 00:17:50;;;;;;;12.52;8.48;;;;;;;;;;4407050;32;20353;-56
2021/07/15 00:20:17;;;;;;;10.40;7.87;;;;;;;;;;4407343;32;20446;-56
2021/07/15 00:22:44;;;;;;;10.48;7.60;;;;;;;;;;4407477;32;20294;-55
2021/07/15 00:25:12;;;;;;;12.93;7.65;;;;;;;;;;4407743;32;20276;-55
2021/07/15 00:27:38;;;;;;;14.18;7.78;;;;;;;;;;4407459;32;20218;-55
2021/07/15 00:30:05;;;;;;;11.90;7.28;;;;;;;;;;4404757;32;20264;-56
2021/07/15 00:32:31;;;;;;;11.32;8.02;;;;;;;;;;4404911;32;20224;-56
2021/07/15 00:34:57;;;;;;;15.00;8.32;;;;;;;;;;4405334;32;20291;-56
2021/07/15 00:37:22;;;;;;;10.82;7.60;;;;;;;;;;4404897;32;20694;-57
2021/07/15 00:39:48;;;;;;;11.38;7.95;;;;;;;;;;4405168;32;20284;-57
2021/07/15 00:42:13;;;;;;;14.40;8.45;;;;;;;;;;4404877;32;20224;-56
2021/07/15 00:44:39;;;;;;;10.15;7.50;;;;;;;;;;4400909;32;20301;-56
2021/07/15 00:47:05;;;;;;;9.88;7.28;;;;;;;;;;4389614;32;20252;-56
2021/07/15 00:49:30;;;;;;;13.65;8.40;;;;;;;;;;4389828;32;20214;-56
2021/07/15 00:51:56;;;;;;;16.62;9.15;;;;;;;;;;4389303;32;20244;-56
2021/07/15 00:54:21;;;;;;;15.02;8.18;;;;;;;;;;4389454;32;20686;-56
2021/07/15 00:56:47;;;;;;;13.00;8.15;;;;;;;;;;4389828;32;20249;-56
2021/07/15 00:59:12;;;;;;;9.48;8.32;;;;;;;;;;4389732;32;20252;-55
2021/07/15 01:01:38;;;;;;;21.37;8.93;;;;;;;;;;4389672;32;20320;-56
2021/07/15 01:04:04;;;;;;;11.20;8.75;;;;;;;;;;4398847;32;20249;-55
2021/07/15 01:06:29;;;;;;;10.57;8.82;;;;;;;;;;4404399;32;20304;-56
2021/07/15 01:08:54;;;;;;;11.27;8.55;;;;;;;;;;4403071;32;20260;-55
2021/07/15 01:11:33;;;;;;;15.63;7.95;;;;;;;;;;4403132;32;20233;-56
2021/07/15 01:14:08;;;;;;;20.58;8.30;;;;;;;;;;4404627;32;20241;-55
2021/07/15 01:16:52;;;;;;;13.00;8.77;;;;;;;;;;4404777;32;20232;-55
2021/07/15 01:19:57;;;;;;;10.73;7.62;;;;;;;;;;4404601;32;20581;-55
2021/07/15 01:22:31;;;;;;;11.55;7.70;;;;;;;;;;4389240;32;20302;-56
2021/07/15 01:25:31;;;;;;;14.23;7.78;;;;;;;;;;4389335;32;20246;-55
2021/07/15 01:28:15;;;;;;;13.95;7.82;;;;;;;;;;4388901;32;20860;-55
2021/07/15 01:30:45;;;;;;;12.75;7.47;;;;;;;;;;4399231;32;20231;-55
2021/07/15 01:33:16;;;;;;;13.32;7.22;;;;;;;;;;4403786;32;20625;-55
2021/07/15 01:35:49;;;;;;;16.00;8.48;;;;;;;;;;4404008;32;20264;-55
2021/07/15 01:38:18;;;;;;;12.05;8.18;;;;;;;;;;4402805;32;20264;-56
2021/07/15 01:40:47;;;;;;;23.02;8.70;;;;;;;;;;4403851;32;20335;-55
2021/07/15 01:43:18;;;;;;;12.43;8.20;;;;;;;;;;4403766;32;20241;-55
2021/07/15 01:45:45;;;;;;;11.30;8.40;;;;;;;;;;4403700;32;20230;-55
2021/07/15 01:48:12;;;;;;;12.63;8.07;;;;;;;;;;4403978;32;20699;-56
2021/07/15 01:50:38;;;;;;;12.27;7.57;;;;;;;;;;4404183;32;20282;-56
2021/07/15 01:53:04;;;;;;;11.75;8.50;;;;;;;;;;4403659;32;20242;-56
2021/07/15 01:55:30;;;;;;;10.75;8.40;;;;;;;;;;4404270;32;20337;-56
2021/07/15 01:57:57;;;;;;;13.25;7.37;;;;;;;;;;4403647;32;20202;-55
2021/07/15 02:00:23;;;;;;;11.32;8.25;;;;;;;;;;4404291;32;20707;-55
2021/07/15 02:02:50;;;;;;;14.02;7.95;;;;;;;;;;4402925;32;20209;-57
2021/07/15 02:05:17;;;;;;;12.88;7.53;;;;;;;;;;4403417;32;20234;-56
2021/07/15 02:07:44;;;;;;;11.05;7.75;;;;;;;;;;4402390;32;20304;-55
2021/07/15 02:10:13;;;;;;;19.42;9.25;;;;;;;;;;4403619;32;20299;-55
2021/07/15 02:12:40;;;;;;;10.55;8.13;;;;;;;;;;4403697;32;20761;-54
2021/07/15 02:15:06;;;;;;;13.32;9.02;;;;;;;;;;4402505;32;20714;-55
2021/07/15 02:17:39;;;;;;;15.65;8.07;;;;;;;;;;4403374;32;20225;-55
2021/07/15 02:20:08;;;;;;;14.10;8.85;;;;;;;;;;4403983;32;20241;-55
2021/07/15 02:22:36;;;;;;;13.45;10.02;;;;;;;;;;4389420;32;20210;-56
2021/07/15 02:25:04;;;;;;;17.50;10.60;;;;;;;;;;4388601;32;20272;-55
2021/07/15 02:27:30;;;;;;;13.10;10.82;;;;;;;;;;4401918;32;20746;-56
2021/07/15 02:29:55;;;;;;;10.98;9.18;;;;;;;;;;4403684;32;20241;-56
2021/07/15 02:32:21;;;;;;;14.77;9.15;;;;;;;;;;4403273;32;20328;-56
2021/07/15 02:35:04;;;;;;;13.05;9.50;;;;;;;;;;4403426;32;20234;-55
2021/07/15 02:37:36;;;;;;;13.38;10.35;;;;;;;;;;4403107;32;20743;-55
2021/07/15 02:40:13;;;;;;;13.35;9.60;;;;;;;;;;4403650;32;20676;-55
2021/07/15 02:42:40;;;;;;;14.40;9.75;;;;;;;;;;4403318;32;20219;-55
2021/07/15 02:45:08;;;;;;;10.52;9.13;;;;;;;;;;4396081;32;20279;-55
2021/07/15 02:47:33;;;;;;;10.68;9.10;;;;;;;;;;4387682;32;20229;-56
2021/07/15 02:49:59;;;;;;;13.70;9.13;;;;;;;;;;4388332;32;20311;-56
2021/07/15 02:52:24;;;;;;;12.32;9.90;;;;;;;;;;4387668;32;20201;-56
2021/07/15 02:54:50;;;;;;;14.32;9.38;;;;;;;;;;4388225;32;20238;-56
2021/07/15 02:57:40;;;;;;;13.35;9.88;;;;;;;;;;4388168;32;20728;-55
2021/07/15 03:00:10;;;;;;;16.25;10.68;;;;;;;;;;4388336;32;20303;-55
2021/07/15 03:02:36;;;;;;;15.45;10.52;;;;;;;;;;4389671;32;20347;-56
2021/07/15 03:05:06;;;;;;;17.17;11.25;;;;;;;;;;4403174;32;20301;-55
2021/07/15 03:07:36;;;;;;;15.98;11.43;;;;;;;;;;4402812;32;20221;-55
2021/07/15 03:10:04;;;;;;;11.68;10.48;;;;;;;;;;4402676;32;20308;-55
2021/07/15 03:12:36;;;;;;;17.58;10.63;;;;;;;;;;4402907;32;20201;-54
2021/07/15 03:15:04;;;;;;;13.50;10.38;;;;;;;;;;4403104;32;20703;-56
2021/07/15 03:17:37;;;;;;;13.48;10.05;;;;;;;;;;4402671;32;20694;-56
2021/07/15 03:20:14;;;;;;;15.77;11.23;;;;;;;;;;4402846;32;20656;-55
2021/07/15 03:22:44;;;;;;;15.50;10.88;;;;;;;;;;4402189;32;20534;-55
2021/07/15 03:25:12;;;;;;;15.80;10.43;;;;;;;;;;4402966;32;20303;-56
2021/07/15 03:27:43;;;;;;;15.63;10.90;;;;;;;;;;4402717;32;20379;-55
2021/07/15 03:30:10;;;;;;;17.00;11.65;;;;;;;;;;4401495;32;20739;-57
2021/07/15 03:32:38;;;;;;;14.85;10.27;;;;;;;;;;4402388;32;20224;-55
2021/07/15 03:35:05;;;;;;;12.52;10.52;;;;;;;;;;4403080;32;20316;-55
2021/07/15 03:37:31;;;;;;;13.40;10.68;;;;;;;;;;4402724;32;20658;-55
2021/07/15 03:39:57;;;;;;;15.38;10.77;;;;;;;;;;4401869;32;20314;-56
2021/07/15 03:42:23;;;;;;;19.45;12.20;;;;;;;;;;4402746;32;20292;-58
2021/07/15 03:44:49;;;;;;;21.58;12.63;;;;;;;;;;4402480;32;20253;-56
2021/07/15 03:47:17;;;;;;;14.25;11.50;;;;;;;;;;4402544;32;20538;-56
2021/07/15 03:49:44;;;;;;;15.45;10.02;;;;;;;;;;4402602;32;20249;-56
2021/07/15 03:52:14;;;;;;;14.82;9.77;;;;;;;;;;4402316;32;20331;-56
2021/07/15 03:54:45;;;;;;;18.15;10.68;;;;;;;;;;4402812;32;20301;-55
2021/07/15 03:57:14;;;;;;;15.20;11.15;;;;;;;;;;4402708;32;20202;-56
2021/07/15 03:59:45;;;;;;;18.52;9.77;;;;;;;;;;4401577;32;20251;-55
2021/07/15 04:02:12;;;;;;;18.25;11.25;;;;;;;;;;4401182;32;20396;-55
2021/07/15 04:04:41;;;;;;;17.17;11.10;;;;;;;;;;4403389;32;20217;-56
2021/07/15 04:07:07;;;;;;;19.45;11.15;;;;;;;;;;4405623;32;20509;-56
2021/07/15 04:09:35;;;;;;;16.92;11.77;;;;;;;;;;4404095;32;20283;-56
2021/07/15 04:12:02;;;;;;;19.08;11.90;;;;;;;;;;4405286;32;20237;-55
2021/07/15 04:15:00;;;;;;;18.95;12.30;;;;;;;;;;4405065;32;20337;-56
2021/07/15 04:17:29;;;;;;;16.95;11.30;;;;;;;;;;4405415;32;20260;-55
2021/07/15 04:19:59;;;;;;;15.02;11.18;;;;;;;;;;4404606;32;20655;-56
2021/07/15 04:22:28;;;;;;;14.20;10.77;;;;;;;;;;4400204;32;20336;-56
2021/07/15 04:24:55;;;;;;;22.40;12.18;;;;;;;;;;4390096;32;20268;-56
2021/07/15 04:27:22;;;;;;;16.52;11.68;;;;;;;;;;4389966;32;20289;-56
2021/07/15 04:29:48;;;;;;;13.30;10.25;;;;;;;;;;4390376;32;20305;-56
2021/07/15 04:32:26;;;;;;;19.52;10.85;;;;;;;;;;4401344;32;20237;-56
2021/07/15 04:34:54;;;;;;;15.20;11.10;;;;;;;;;;4404969;32;20681;-56
2021/07/15 04:37:21;;;;;;;18.95;11.30;;;;;;;;;;4404639;32;20292;-56
2021/07/15 04:39:47;;;;;;;16.77;10.43;;;;;;;;;;4405189;32;20213;-56
2021/07/15 04:42:15;;;;;;;13.80;10.35;;;;;;;;;;4403594;32;20272;-55
2021/07/15 04:44:43;;;;;;;16.50;11.35;;;;;;;;;;4404476;32;20615;-55
2021/07/15 04:47:10;;;;;;;17.33;10.40;;;;;;;;;;4404812;32;20309;-56
2021/07/15 04:49:35;;;;;;;14.73;10.40;;;;;;;;;;4403855;32;20264;-55
2021/07/15 04:52:03;;;;;;;18.60;10.85;;;;;;;;;;4404719;32;20390;-55
2021/07/15 04:54:30;;;;;;;16.62;12.40;;;;;;;;;;4404978;32;20690;-56
2021/07/15 04:56:56;;;;;;;13.10;9.98;;;;;;;;;;4404770;32;20769;-56
2021/07/15 04:59:22;;;;;;;11.63;10.43;;;;;;;;;;4404759;32;20213;-56
2021/07/15 05:01:48;;;;;;;15.55;10.65;;;;;;;;;;4404788;32;20210;-55
2021/07/15 05:04:13;;;;;;;15.52;11.38;;;;;;;;;;4403137;32;20657;-55
2021/07/15 05:06:39;;;;;;;17.85;10.07;;;;;;;;;;4404578;32;20794;-56
2021/07/15 05:09:04;;;;;;;20.10;11.40;;;;;;;;;;4404459;32;20780;-56
2021/07/15 05:11:32;;;;;;;17.33;10.90;;;;;;;;;;4404166;32;20251;-56
2021/07/15 05:13:58;;;;;;;15.75;11.40;;;;;;;;;;4403986;32;20256;-55
2021/07/15 05:16:24;;;;;;;11.98;10.15;;;;;;;;;;4403193;32;20206;-56
2021/07/15 05:18:50;;;;;;;13.75;10.43;;;;;;;;;;4402713;32;20765;-55
2021/07/15 05:21:15;;;;;;;19.05;11.65;;;;;;;;;;4403439;32;20304;-55
2021/07/15 05:23:41;;;;;;;19.02;10.32;;;;;;;;;;4403871;32;20423;-55
2021/07/15 05:26:06;;;;;;;27.85;11.25;;;;;;;;;;4403402;32;20334;-55
2021/07/15 05:28:32;;;;;;;16.65;11.65;;;;;;;;;;4403619;32;20221;-55
2021/07/15 05:30:57;;;;;;;14.98;10.85;;;;;;;;;;4402894;32;20306;-54
2021/07/15 05:33:22;;;;;;;23.25;11.50;;;;;;;;;;4402979;32;20222;-55
2021/07/15 05:35:48;;;;;;;13.77;10.50;;;;;;;;;;4402913;32;20291;-55
2021/07/15 05:38:14;;;;;;;23.05;11.93;;;;;;;;;;4403204;32;20691;-55
2021/07/15 05:40:39;;;;;;;16.42;11.73;;;;;;;;;;4403679;32;20312;-56
2021/07/15 05:43:05;;;;;;;16.20;11.80;;;;;;;;;;4401114;32;20213;-56
2021/07/15 05:45:31;;;;;;;14.68;11.43;;;;;;;;;;4390246;32;20268;-56
2021/07/15 05:47:57;;;;;;;13.75;11.30;;;;;;;;;;4388098;32;20304;-55
2021/07/15 05:50:23;;;;;;;19.50;11.77;;;;;;;;;;4401236;32;20299;-55
2021/07/15 05:52:49;;;;;;;20.45;12.75;;;;;;;;;;4400766;32;20237;-55
2021/07/15 05:55:14;;;;;;;25.35;11.27;;;;;;;;;;4401097;32;20281;-55
2021/07/15 05:57:40;;;;;;;17.17;11.35;;;;;;;;;;4401017;32;20304;-55
2021/07/15 06:00:10;;;;;;;15.75;11.63;;;;;;;;;;4400195;32;20245;-55
2021/07/15 06:02:36;;;;;;;14.80;12.10;;;;;;;;;;4403064;32;20328;-55
2021/07/15 06:05:02;;;;;;;14.98;11.38;;;;;;;;;;4400981;32;20743;-57
2021/07/15 06:07:28;;;;;;;14.13;11.02;;;;;;;;;;4402868;32;20237;-55
2021/07/15 06:09:53;;;;;;;15.35;10.95;;;;;;;;;;4402103;32;20217;-55
2021/07/15 06:12:19;;;;;;;17.12;10.88;;;;;;;;;;4402291;32;20300;-55
2021/07/15 06:14:44;;;;;;;14.57;11.40;;;;;;;;;;4402628;32;20275;-55
2021/07/15 06:17:10;;;;;;;13.05;10.60;;;;;;;;;;4401444;32;20282;-55
2021/07/15 06:19:35;;;;;;;14.75;10.70;;;;;;;;;;4402403;32;20562;-54
2021/07/15 06:22:01;;;;;;;17.92;12.15;;;;;;;;;;4403025;32;20210;-55
2021/07/15 06:24:26;;;;;;;14.77;11.70;;;;;;;;;;4402354;32;20271;-55
2021/07/15 06:26:52;;;;;;;16.85;11.20;;;;;;;;;;4402127;32;20719;-55
2021/07/15 06:29:17;;;;;;;17.40;12.20;;;;;;;;;;4402154;32;20259;-55
2021/07/15 06:31:43;;;;;;;18.20;12.50;;;;;;;;;;4402385;32;20301;-57
2021/07/15 06:34:10;;;;;;;26.87;11.23;;;;;;;;;;4402331;32;20791;-55
2021/07/15 06:36:35;;;;;;;20.23;12.10;;;;;;;;;;4402356;32;20249;-55
2021/07/15 06:39:02;;;;;;;17.95;11.07;;;;;;;;;;4402172;32;20347;-55
2021/07/15 06:41:28;;;;;;;17.67;11.20;;;;;;;;;;4402900;32;20254;-55
2021/07/15 06:43:53;;;;;;;12.00;10.75;;;;;;;;;;4402119;32;20241;-55
2021/07/15 06:46:22;;;;;;;18.73;14.13;;;;;;;;;;4393806;32;20688;-55
2021/07/15 06:48:48;;;;;;;13.98;11.65;;;;;;;;;;4401476;32;20684;-57
2021/07/15 06:51:14;;;;;;;18.80;13.32;;;;;;;;;;4401536;32;20309;-56
2021/07/15 06:53:39;;;;;;;24.17;13.85;;;;;;;;;;4401557;32;20522;-54
2021/07/15 06:56:05;;;;;;;15.80;11.73;;;;;;;;;;4402442;32;20296;-55
2021/07/15 06:58:30;;;;;;;15.38;12.10;;;;;;;;;;4402601;32;20339;-55
2021/07/15 07:00:56;;;;;;;18.45;11.60;;;;;;;;;;4402215;32;20277;-55
2021/07/15 07:03:23;;;;;;;18.52;12.10;;;;;;;;;;4401927;32;20247;-55
2021/07/15 07:05:52;;;;;;;21.83;13.48;;;;;;;;;;4402551;32;20346;-56
2021/07/15 07:08:17;;;;;;;16.67;13.32;;;;;;;;;;4402459;32;20251;-55
2021/07/15 07:10:43;;;;;;;19.20;14.20;;;;;;;;;;4401156;32;20328;-55
2021/07/15 07:13:08;;;;;;;15.65;12.77;;;;;;;;;;4402656;32;20257;-55
2021/07/15 07:15:34;;;;;;;18.95;12.90;;;;;;;;;;4402365;32;20426;-55
2021/07/15 07:18:00;;;;;;;18.20;14.87;;;;;;;;;;4402338;32;20221;-55
2021/07/15 07:20:25;;;;;;;19.05;13.07;;;;;;;;;;4401910;32;20293;-55
2021/07/15 07:22:51;;;;;;;19.08;13.75;;;;;;;;;;4401940;32;20197;-55
2021/07/15 07:25:17;;;;;;;24.40;14.15;;;;;;;;;;4400762;32;20303;-56
2021/07/15 07:27:43;;;;;;;21.55;12.98;;;;;;;;;;4402443;32;20221;-55
2021/07/15 07:30:10;;;;;;;17.48;14.45;;;;;;;;;;4402073;32;20395;-56
2021/07/15 07:32:36;;;;;;;23.38;13.90;;;;;;;;;;4391897;32;20213;-55
2021/07/15 07:35:03;;;;;;;25.45;14.90;;;;;;;;;;4402287;32;20668;-55
2021/07/15 07:37:29;;;;;;;21.00;14.68;;;;;;;;;;4401425;32;20271;-55
2021/07/15 07:39:55;;;;;;;22.98;14.65;;;;;;;;;;4404555;32;20250;-55
2021/07/15 07:42:20;;;;;;;18.65;13.65;;;;;;;;;;4405166;32;20312;-56
2021/07/15 07:44:46;;;;;;;16.33;13.25;;;;;;;;;;4404208;32;20248;-56
2021/07/15 07:47:12;;;;;;;18.65;13.45;;;;;;;;;;4405130;32;20209;-55
2021/07/15 07:49:37;;;;;;;22.00;13.48;;;;;;;;;;4405028;32;20222;-56
2021/07/15 07:52:05;;;;;;;18.87;13.40;;;;;;;;;;4405100;32;20802;-57
2021/07/15 07:54:30;;;;;;;21.50;12.18;;;;;;;;;;4398447;32;20248;-56
2021/07/15 07:56:56;;;;;;;21.60;12.55;;;;;;;;;;4389965;32;20589;-55
2021/07/15 07:59:21;;;;;;;16.95;13.05;;;;;;;;;;4390167;32;20631;-55
2021/07/15 08:01:46;;;;;;;13.35;11.88;;;;;;;;;;4397197;32;20281;-55
2021/07/15 08:04:12;;;;;;;18.35;13.52;;;;;;;;;;4405417;32;20247;-55
2021/07/15 08:06:41;;;;;;;19.35;13.02;;;;;;;;;;4405747;32;20280;-56
2021/07/15 08:09:08;;;;;;;16.83;12.30;;;;;;;;;;4405559;32;20230;-55
2021/07/15 08:11:35;;;;;;;18.62;12.60;;;;;;;;;;4405642;32;20305;-56
2021/07/15 08:14:00;;;;;;;17.50;13.93;;;;;;;;;;4405110;32;20660;-55
2021/07/15 08:16:26;;;;;;;15.20;13.00;;;;;;;;;;4404416;32;20361;-56
2021/07/15 08:18:51;;;;;;;26.85;13.07;;;;;;;;;;4405944;32;20254;-56
2021/07/15 08:21:21;;;;;;;18.17;13.70;;;;;;;;;;4405485;32;20284;-57
2021/07/15 08:23:47;;;;;;;17.95;13.80;;;;;;;;;;4405329;32;20243;-55
2021/07/15 08:26:13;;;;;;;19.23;12.40;;;;;;;;;;4405354;32;20193;-55
2021/07/15 08:28:39;;;;;;;18.37;12.77;;;;;;;;;;4405920;32;20248;-55
2021/07/15 08:31:04;;;;;;;17.48;12.68;;;;;;;;;;4405740;32;20273;-55
2021/07/15 08:33:30;;;;;;;15.50;13.55;;;;;;;;;;4405525;32;20630;-55
2021/07/15 08:35:56;;;;;;;18.25;13.00;;;;;;;;;;4405075;32;20326;-55
2021/07/15 08:38:22;;;;;;;19.80;12.68;;;;;;;;;;4404191;32;20344;-55
2021/07/15 08:40:48;;;;;;;17.12;13.32;;;;;;;;;;4405254;32;20383;-55
2021/07/15 08:43:14;;;;;;;15.60;12.63;;;;;;;;;;4405073;32;20573;-55
2021/07/15 08:45:41;;;;;;;18.50;12.02;;;;;;;;;;4404371;32;20315;-56
2021/07/15 08:48:10;;;;;;;12.75;11.50;;;;;;;;;;4405141;32;20690;-55
2021/07/15 08:50:36;;;;;;;18.17;11.35;;;;;;;;;;4403243;32;20237;-56
2021/07/15 08:53:02;;;;;;;15.50;11.82;;;;;;;;;;4403173;32;20706;-55
2021/07/15 08:58:13;;;;;;;16.85;12.45;;;;;;;;;;4404822;32;20244;-55
2021/07/15 09:00:40;;;;;;;20.92;12.25;;;;;;;;;;4404825;32;20202;-56
2021/07/15 09:03:06;;;;;;;16.30;12.85;;;;;;;;;;4404085;32;20205;-55
2021/07/15 09:05:31;;;;;;;15.30;12.52;;;;;;;;;;4403168;32;20362;-57
2021/07/15 09:07:57;;;;;;;14.90;12.27;;;;;;;;;;4404771;32;20218;-56
2021/07/15 09:10:22;;;;;;;16.12;11.25;;;;;;;;;;4404424;32;20681;-56
2021/07/15 09:12:48;;;;;;;15.02;12.37;;;;;;;;;;4404268;32;20268;-55
2021/07/15 09:15:14;;;;;;;14.90;12.37;;;;;;;;;;4403803;32;20352;-56
2021/07/15 09:17:40;;;;;;;19.67;13.25;;;;;;;;;;4403898;32;20343;-55
2021/07/15 09:20:08;;;;;;;13.55;11.88;;;;;;;;;;4403869;32;20221;-55
2021/07/15 09:22:52;;;;;;;16.12;11.52;;;;;;;;;;4403823;32;20212;-55
2021/07/15 09:25:17;;;;;;;14.40;12.50;;;;;;;;;;4404431;32;20235;-56
2021/07/15 09:27:49;;;;;;;23.05;12.75;;;;;;;;;;4404421;32;20277;-55
2021/07/15 09:30:16;;;;;;;15.90;13.13;;;;;;;;;;4404204;32;20190;-55
2021/07/15 09:32:51;;;;;;;15.38;12.10;;;;;;;;;;4389361;32;20243;-56
2021/07/15 09:35:24;;;;;;;14.68;12.15;;;;;;;;;;4388603;32;20390;-56
2021/07/15 09:37:50;;;;;;;18.08;11.48;;;;;;;;;;4402492;32;20692;-56
2021/07/15 09:40:35;;;;;;;22.67;12.07;;;;;;;;;;4403451;32;20261;-57
2021/07/15 09:43:31;;;;;;;15.32;12.68;;;;;;;;;;4403800;32;20283;-56
2021/07/15 09:46:14;;;;;;;14.90;11.15;;;;;;;;;;4403354;32;20643;-56
2021/07/15 09:48:48;;;;;;;12.77;10.98;;;;;;;;;;4401600;32;20399;-55
2021/07/15 09:51:15;;;;;;;13.05;11.05;;;;;;;;;;4403612;32;20201;-56
2021/07/15 09:53:41;;;;;;;15.50;12.68;;;;;;;;;;4404119;32;20696;-55
2021/07/15 09:56:11;;;;;;;12.32;10.88;;;;;;;;;;4404429;32;20391;-56
2021/07/15 09:58:40;;;;;;;13.65;11.75;;;;;;;;;;4403886;32;20222;-55
2021/07/15 10:01:19;;;;;;;14.23;11.25;;;;;;;;;;4404151;32;20630;-56
2021/07/15 10:03:47;;;;;;;15.27;11.48;;;;;;;;;;4403892;32;20649;-56
2021/07/15 10:06:14;;;;;;;13.70;10.93;;;;;;;;;;4404227;32;20201;-56
2021/07/15 10:08:42;;;;;;;13.25;11.40;;;;;;;;;;4404218;32;20308;-56
2021/07/15 10:11:13;;;;;;;13.82;11.23;;;;;;;;;;4404315;32;20228;-56
2021/07/15 10:13:39;;;;;;;13.88;10.18;;;;;;;;;;4403986;32;20245;-56
2021/07/15 10:16:06;;;;;;;11.45;10.27;;;;;;;;;;4404349;32;20284;-56
2021/07/15 10:18:39;;;;;;;11.15;9.98;;;;;;;;;;4403214;32;20225;-55
2021/07/15 10:21:08;;;;;;;15.52;10.98;;;;;;;;;;4402274;32;20226;-57
2021/07/15 10:23:39;;;;;;;14.63;10.05;;;;;;;;;;4403409;32;20217;-56
2021/07/15 10:26:07;;;;;;;11.98;10.77;;;;;;;;;;4403324;32;20221;-56
2021/07/15 10:28:32;;;;;;;16.45;10.27;;;;;;;;;;4402798;32;20297;-55
2021/07/15 10:31:00;;;;;;;15.20;11.70;;;;;;;;;;4402417;32;20293;-57
2021/07/15 10:33:27;;;;;;;10.82;9.65;;;;;;;;;;4402454;32;20275;-56
2021/07/15 10:35:53;;;;;;;14.57;10.68;;;;;;;;;;4402215;32;20260;-55
2021/07/15 10:38:20;;;;;;;17.70;10.88;;;;;;;;;;4403296;32;20244;-56
2021/07/15 10:40:48;;;;;;;12.00;10.70;;;;;;;;;;4403331;32;20579;-56
2021/07/15 10:43:14;;;;;;;14.73;10.25;;;;;;;;;;4403291;32;20290;-56
2021/07/15 10:45:40;;;;;;;13.20;10.00;;;;;;;;;;4403673;32;20330;-56
2021/07/15 10:48:06;;;;;;;12.35;10.50;;;;;;;;;;4398888;32;20214;-56
2021/07/15 10:50:31;;;;;;;14.87;9.57;;;;;;;;;;4387740;32;20426;-56
2021/07/15 10:52:58;;;;;;;10.95;9.70;;;;;;;;;;4389225;32;20233;-56
2021/07/15 10:55:25;;;;;;;10.43;9.27;;;;;;;;;;4402187;32;20629;-56
2021/07/15 10:57:51;;;;;;;14.93;9.82;;;;;;;;;;4402710;32;20213;-56
2021/07/15 11:00:23;;;;;;;16.27;9.77;;;;;;;;;;4402802;32;20664;-56
2021/07/15 11:03:17;;;;;;;10.38;8.70;;;;;;;;;;4402671;32;20213;-57
2021/07/15 11:05:54;;;;;;;13.45;9.43;;;;;;;;;;4399336;32;20296;-56
2021/07/15 11:08:45;;;;;;;12.50;9.52;;;;;;;;;;4403004;32;20341;-56
2021/07/15 11:11:12;;;;;;;11.15;9.05;;;;;;;;;;4403177;32;20488;-56
2021/07/15 11:13:38;;;;;;;11.95;9.27;;;;;;;;;;4402508;32;20292;-57
2021/07/15 11:16:06;;;;;;;12.43;9.95;;;;;;;;;;4402717;32;20310;-58
2021/07/15 11:18:49;;;;;;;11.45;8.93;;;;;;;;;;4402680;32;20544;-56
2021/07/15 11:24:32;;;;;;;11.73;8.82;;;;;;;;;;4403286;32;20292;-57
2021/07/15 11:26:58;;;;;;;11.05;8.90;;;;;;;;;;4375316;32;20256;-55
2021/07/15 11:29:51;;;;;;;10.43;8.98;;;;;;;;;;4403503;32;20226;-56
2021/07/15 11:32:26;;;;;;;11.07;9.00;;;;;;;;;;4402330;32;20240;-56
2021/07/15 11:34:53;;;;;;;13.27;9.13;;;;;;;;;;4402751;32;20216;-56
2021/07/15 11:37:35;;;;;;;9.23;8.25;;;;;;;;;;4403039;32;20546;-57
2021/07/15 11:40:04;;;;;;;14.82;8.13;;;;;;;;;;4402658;32;20261;-56
2021/07/15 11:42:34;;;;;;;11.07;9.60;;;;;;;;;;4402227;32;20696;-56
2021/07/15 11:45:06;;;;;;;16.27;9.00;;;;;;;;;;4401946;32;20334;-56
2021/07/15 11:47:51;;;;;;;9.35;8.38;;;;;;;;;;4403538;32;20263;-57
2021/07/15 11:50:34;;;;;;;15.20;8.88;;;;;;;;;;4379668;32;20304;-57
2021/07/15 11:53:19;;;;;;;16.25;9.52;;;;;;;;;;4395857;32;20692;-55
2021/07/15 11:55:53;;;;;;;12.50;9.65;;;;;;;;;;4402401;32;20212;-56
2021/07/15 11:58:46;;;;;;;9.80;8.80;;;;;;;;;;4402489;32;20247;-56
2021/07/15 12:01:21;;;;;;;10.82;9.35;;;;;;;;;;4401218;32;20536;-56
2021/07/15 12:04:04;;;;;;;12.43;8.98;;;;;;;;;;4400449;32;20777;-56
2021/07/15 12:06:32;;;;;;;11.35;9.35;;;;;;;;;;4403240;32;20300;-56
2021/07/15 12:09:06;;;;;;;10.40;8.88;;;;;;;;;;4403306;32;20236;-57
2021/07/15 12:11:32;;;;;;;13.32;8.88;;;;;;;;;;4403168;32;20195;-56
2021/07/15 12:14:00;;;;;;;12.37;8.25;;;;;;;;;;4403168;32;20594;-55
2021/07/15 12:16:26;;;;;;;9.48;8.25;;;;;;;;;;4403002;32;20202;-57
2021/07/15 12:18:51;;;;;;;14.32;8.60;;;;;;;;;;4401962;32;20264;-56
2021/07/15 12:21:19;;;;;;;11.77;8.50;;;;;;;;;;4402735;32;20285;-58
2021/07/15 12:23:47;;;;;;;11.00;8.55;;;;;;;;;;4402855;32;20217;-56
2021/07/15 12:26:19;;;;;;;10.95;9.18;;;;;;;;;;4404098;32;20217;-56
2021/07/15 12:28:46;;;;;;;16.70;9.23;;;;;;;;;;4405223;32;20275;-56
2021/07/15 12:31:18;;;;;;;14.70;9.38;;;;;;;;;;4405532;32;20635;-56
2021/07/15 12:33:50;;;;;;;10.77;9.07;;;;;;;;;;4405875;32;20544;-56
2021/07/15 12:36:20;;;;;;;11.00;9.23;;;;;;;;;;4400296;32;20236;-56
2021/07/15 12:38:48;;;;;;;20.00;8.95;;;;;;;;;;4389262;32;20291;-56
2021/07/15 12:41:16;;;;;;;10.63;8.55;;;;;;;;;;4388407;32;20226;-56
2021/07/15 12:43:48;;;;;;;14.10;8.80;;;;;;;;;;4388627;32;20234;-56
2021/07/15 12:46:19;;;;;;;10.88;9.02;;;;;;;;;;4390378;32;20280;-56
2021/07/15 12:48:48;;;;;;;11.52;8.10;;;;;;;;;;4389144;32;20256;-56
2021/07/15 12:51:15;;;;;;;12.13;8.70;;;;;;;;;;4390125;32;20202;-56
2021/07/15 12:53:43;;;;;;;14.40;9.27;;;;;;;;;;4396499;32;20357;-56
2021/07/15 12:56:11;;;;;;;11.38;8.27;;;;;;;;;;4403373;32;20229;-56
2021/07/15 12:58:38;;;;;;;10.75;8.35;;;;;;;;;;4404857;32;20217;-56
2021/07/15 13:01:06;;;;;;;12.90;8.73;;;;;;;;;;4404070;32;20202;-56
2021/07/15 13:03:32;;;;;;;10.65;7.97;;;;;;;;;;4404405;32;20243;-56
2021/07/15 13:05:58;;;;;;;10.60;9.23;;;;;;;;;;4404317;32;20781;-57
2021/07/15 13:08:31;;;;;;;14.55;8.98;;;;;;;;;;4404444;32;20547;-56
2021/07/15 13:16:18;;;;;;;12.55;8.68;;;;;;;;;;4404638;32;20224;-56
2021/07/15 13:18:43;;;;;;;13.30;8.50;;;;;;;;;;4404662;32;20357;-57
2021/07/15 13:21:09;;;;;;;9.95;8.77;;;;;;;;;;4404461;32;20277;-56
2021/07/15 13:23:39;;;;;;;14.32;9.73;;;;;;;;;;4404091;32;20648;-56
2021/07/15 13:26:12;;;;;;;14.02;9.23;;;;;;;;;;4404679;32;20194;-56
2021/07/15 13:28:38;;;;;;;15.90;8.63;;;;;;;;;;4402504;32;20237;-56
2021/07/15 13:31:11;;;;;;;9.98;8.25;;;;;;;;;;4400937;32;20273;-57
2021/07/15 13:33:41;;;;;;;14.93;9.18;;;;;;;;;;4399858;32;20310;-56
2021/07/15 13:36:06;;;;;;;13.62;8.75;;;;;;;;;;4399196;32;20217;-56
2021/07/15 13:38:43;;;;;;;11.25;8.38;;;;;;;;;;4402575;32;20692;-56
2021/07/15 13:41:27;;;;;;;21.23;9.25;;;;;;;;;;4403857;32;20563;-56
2021/07/15 13:44:10;;;;;;;10.32;8.25;;;;;;;;;;4403742;32;20288;-56
2021/07/15 13:46:37;;;;;;;15.55;9.63;;;;;;;;;;4403698;32;20217;-56
2021/07/15 13:49:04;;;;;;;11.27;9.00;;;;;;;;;;4403620;32;20290;-56
2021/07/15 13:51:30;;;;;;;11.05;9.13;;;;;;;;;;4403355;32;20235;-56
2021/07/15 13:53:56;;;;;;;14.25;9.73;;;;;;;;;;4403800;32;20222;-56
2021/07/15 13:56:23;;;;;;;13.00;9.65;;;;;;;;;;4401952;32;20303;-56
2021/07/15 13:58:49;;;;;;;11.10;8.65;;;;;;;;;;4403530;32;20673;-56
2021/07/15 14:01:28;;;;;;;13.95;9.68;;;;;;;;;;4403043;32;20225;-57
2021/07/15 14:03:55;;;;;;;13.93;8.85;;;;;;;;;;4401511;32;20228;-56
2021/07/15 14:06:22;;;;;;;15.48;8.95;;;;;;;;;;4402408;32;20228;-57
2021/07/15 14:08:59;;;;;;;18.87;8.45;;;;;;;;;;4401613;32;20316;-57
2021/07/15 14:11:24;;;;;;;12.60;9.02;;;;;;;;;;4403325;32;20205;-56
2021/07/15 14:13:50;;;;;;;11.45;8.77;;;;;;;;;;4403288;32;20255;-56
2021/07/15 14:16:18;;;;;;;16.77;9.85;;;;;;;;;;4402143;32;20299;-57
2021/07/15 14:18:44;;;;;;;24.40;9.48;;;;;;;;;;4401543;32;20317;-56
2021/07/15 14:21:11;;;;;;;16.40;8.68;;;;;;;;;;4403322;32;20721;-56
2021/07/15 14:23:37;;;;;;;12.82;10.02;;;;;;;;;;4403564;32;20280;-55
2021/07/15 14:26:07;;;;;;;18.85;8.65;;;;;;;;;;4403853;32;20276;-56
2021/07/15 14:28:33;;;;;;;10.30;8.15;;;;;;;;;;4403264;32;20259;-57
2021/07/15 14:30:59;;;;;;;9.85;7.97;;;;;;;;;;4403821;32;20233;-57
2021/07/15 14:33:25;;;;;;;16.87;8.93;;;;;;;;;;4403304;32;20644;-55
2021/07/15 14:35:52;;;;;;;12.30;8.00;;;;;;;;;;4403418;32;20712;-56
2021/07/15 14:38:19;;;;;;;12.77;8.40;;;;;;;;;;4402646;32;20290;-57
2021/07/15 14:40:46;;;;;;;9.63;7.87;;;;;;;;;;4403221;32;20201;-57
2021/07/15 14:43:12;;;;;;;20.55;9.98;;;;;;;;;;4402217;32;20284;-56